createdAt,value
2017-12-16T00:00:04.775Z,6.81
2017-12-16T00:00:30.877Z,6.74
2017-12-16T00:00:56.993Z,6.79
2017-12-16T00:01:23.104Z,6.74
2017-12-16T00:01:49.210Z,6.72
2017-12-16T00:02:15.322Z,6.72
2017-12-16T00:02:41.419Z,6.79
2017-12-16T00:03:07.518Z,6.84
2017-12-16T00:03:33.618Z,6.77
2017-12-16T00:03:59.722Z,6.81
2017-12-16T00:04:25.818Z,6.74
2017-12-16T00:04:51.925Z,6.69
2017-12-16T00:05:18.019Z,6.72
2017-12-16T00:05:44.124Z,6.69
2017-12-16T00:06:10.223Z,6.63
2017-12-16T00:06:36.317Z,6.66
2017-12-16T00:07:02.416Z,6.74
2017-12-16T00:07:28.523Z,6.6
2017-12-16T00:07:54.626Z,6.69
2017-12-16T00:08:20.721Z,6.6
2017-12-16T00:08:46.819Z,6.75
2017-12-16T00:09:12.924Z,6.57
2017-12-16T00:09:39.044Z,6.64
2017-12-16T00:10:05.149Z,6.63
2017-12-16T00:10:31.261Z,6.74
2017-12-16T00:10:57.357Z,6.7
2017-12-16T00:11:23.462Z,6.69
2017-12-16T00:11:49.557Z,6.62
2017-12-16T00:12:15.661Z,6.59
2017-12-16T00:12:41.774Z,6.57
2017-12-16T00:13:07.874Z,6.41
2017-12-16T00:13:33.978Z,6.48
2017-12-16T00:14:00.078Z,6.51
2017-12-16T00:14:26.182Z,6.51
2017-12-16T00:14:52.286Z,6.51
2017-12-16T00:15:18.384Z,6.52
2017-12-16T00:15:44.507Z,6.51
2017-12-16T00:16:10.599Z,6.48
2017-12-16T00:16:36.693Z,6.57
2017-12-16T00:17:02.794Z,6.51
2017-12-16T00:17:28.890Z,6.51
2017-12-16T00:17:54.996Z,6.52
2017-12-16T00:18:21.089Z,6.42
2017-12-16T00:18:47.193Z,6.46
2017-12-16T00:19:13.288Z,6.44
2017-12-16T00:19:39.391Z,6.56
2017-12-16T00:20:05.487Z,6.56
2017-12-16T00:20:31.587Z,6.54
2017-12-16T00:20:57.703Z,6.51
2017-12-16T00:21:23.801Z,6.48
2017-12-16T00:21:49.905Z,6.48
2017-12-16T00:22:16.005Z,6.45
2017-12-16T00:22:42.119Z,6.46
2017-12-16T00:23:08.223Z,6.45
2017-12-16T00:23:34.316Z,6.45
2017-12-16T00:24:00.415Z,6.35
2017-12-16T00:24:26.515Z,6.3
2017-12-16T00:24:52.611Z,6.33
2017-12-16T00:25:18.714Z,6.35
2017-12-16T00:25:44.811Z,6.35
2017-12-16T00:26:10.916Z,6.33
2017-12-16T00:26:37.011Z,6.35
2017-12-16T00:27:03.112Z,6.39
2017-12-16T00:27:29.216Z,6.39
2017-12-16T00:27:55.329Z,6.45
2017-12-16T00:28:21.433Z,6.36
2017-12-16T00:28:47.533Z,6.35
2017-12-16T00:29:13.631Z,6.41
2017-12-16T00:29:39.733Z,6.46
2017-12-16T00:30:05.829Z,6.46
2017-12-16T00:30:31.927Z,6.41
2017-12-16T00:30:58.028Z,6.46
2017-12-16T00:31:24.133Z,6.49
2017-12-16T00:31:50.233Z,6.45
2017-12-16T00:32:16.327Z,6.45
2017-12-16T00:32:42.433Z,6.42
2017-12-16T00:33:08.532Z,6.38
2017-12-16T00:33:34.628Z,6.45
2017-12-16T00:34:00.729Z,6.33
2017-12-16T00:34:26.825Z,6.41
2017-12-16T00:34:52.917Z,6.48
2017-12-16T00:35:19.020Z,6.49
2017-12-16T00:35:45.123Z,6.46
2017-12-16T00:36:11.218Z,6.46
2017-12-16T00:36:37.323Z,6.42
2017-12-16T00:37:03.415Z,6.44
2017-12-16T00:37:29.522Z,6.48
2017-12-16T00:37:55.634Z,6.48
2017-12-16T00:38:21.731Z,6.48
2017-12-16T00:38:47.831Z,6.42
2017-12-16T00:39:13.935Z,6.48
2017-12-16T00:39:40.033Z,6.44
2017-12-16T00:40:06.151Z,6.45
2017-12-16T00:40:32.255Z,6.44
2017-12-16T00:40:58.359Z,6.44
2017-12-16T00:41:24.496Z,6.41
2017-12-16T00:41:50.556Z,6.52
2017-12-16T00:42:16.660Z,6.51
2017-12-16T00:42:42.760Z,6.54
2017-12-16T00:43:08.854Z,6.45
2017-12-16T00:43:34.961Z,6.46
2017-12-16T00:44:01.055Z,6.41
2017-12-16T00:44:27.157Z,6.44
2017-12-16T00:44:53.257Z,6.46
2017-12-16T00:45:19.350Z,6.39
2017-12-16T00:45:45.452Z,6.48
2017-12-16T00:46:11.557Z,6.44
2017-12-16T00:46:37.653Z,6.52
2017-12-16T00:47:03.749Z,6.44
2017-12-16T00:47:29.854Z,6.38
2017-12-16T00:47:55.957Z,6.27
2017-12-16T00:48:22.066Z,6.36
2017-12-16T00:48:48.166Z,6.31
2017-12-16T00:49:14.261Z,6.35
2017-12-16T00:49:40.373Z,6.36
2017-12-16T00:50:06.545Z,6.28
2017-12-16T00:50:32.586Z,6.41
2017-12-16T00:50:58.688Z,6.39
2017-12-16T00:51:24.785Z,6.33
2017-12-16T00:51:50.902Z,6.3
2017-12-16T00:52:17.002Z,6.35
2017-12-16T00:52:43.103Z,6.33
2017-12-16T00:53:09.199Z,6.31
2017-12-16T00:53:35.303Z,6.24
2017-12-16T00:54:01.404Z,6.31
2017-12-16T00:54:27.500Z,6.28
2017-12-16T00:54:53.595Z,6.3
2017-12-16T00:55:19.712Z,6.27
2017-12-16T00:55:45.816Z,6.22
2017-12-16T00:56:11.918Z,6.31
2017-12-16T00:56:38.016Z,6.24
2017-12-16T00:57:04.122Z,6.14
2017-12-16T00:57:30.217Z,6.14
2017-12-16T00:57:56.318Z,6.07
2017-12-16T00:58:22.416Z,6.09
2017-12-16T00:58:48.539Z,6.09
2017-12-16T00:59:14.636Z,6.08
2017-12-16T00:59:40.743Z,6.04
2017-12-16T01:00:06.845Z,6.05
2017-12-16T01:00:32.943Z,6.09
2017-12-16T01:00:59.042Z,6.17
2017-12-16T01:01:25.161Z,6.19
2017-12-16T01:01:51.264Z,6.14
2017-12-16T01:02:17.360Z,6.22
2017-12-16T01:02:43.459Z,6.27
2017-12-16T01:03:09.558Z,6.24
2017-12-16T01:03:35.662Z,6.22
2017-12-16T01:04:01.759Z,6.27
2017-12-16T01:04:27.857Z,6.31
2017-12-16T01:04:53.960Z,6.17
2017-12-16T01:05:20.054Z,6.2
2017-12-16T01:05:46.157Z,6.2
2017-12-16T01:06:12.258Z,6.24
2017-12-16T01:06:38.361Z,6.24
2017-12-16T01:07:04.456Z,6.24
2017-12-16T01:07:30.552Z,6.27
2017-12-16T01:07:56.651Z,6.26
2017-12-16T01:08:22.756Z,6.3
2017-12-16T01:08:48.852Z,6.36
2017-12-16T01:09:14.954Z,6.35
2017-12-16T01:09:41.058Z,6.3
2017-12-16T01:10:07.159Z,6.33
2017-12-16T01:10:33.259Z,6.3
2017-12-16T01:10:59.362Z,6.36
2017-12-16T01:11:25.460Z,6.3
2017-12-16T01:11:51.563Z,6.3
2017-12-16T01:12:17.661Z,6.35
2017-12-16T01:12:43.763Z,6.42
2017-12-16T01:13:09.882Z,6.35
2017-12-16T01:13:35.978Z,6.45
2017-12-16T01:14:02.085Z,6.35
2017-12-16T01:14:28.192Z,6.3
2017-12-16T01:14:54.296Z,6.31
2017-12-16T01:15:20.392Z,6.36
2017-12-16T01:15:46.501Z,6.41
2017-12-16T01:16:12.596Z,6.35
2017-12-16T01:16:38.693Z,6.35
2017-12-16T01:17:04.795Z,6.35
2017-12-16T01:17:30.892Z,6.44
2017-12-16T01:17:56.995Z,6.49
2017-12-16T01:18:23.110Z,6.41
2017-12-16T01:18:49.206Z,6.38
2017-12-16T01:19:15.303Z,6.41
2017-12-16T01:19:41.409Z,6.42
2017-12-16T01:20:07.509Z,6.39
2017-12-16T01:20:33.625Z,6.36
2017-12-16T01:20:59.730Z,6.41
2017-12-16T01:21:25.827Z,6.36
2017-12-16T01:21:51.933Z,6.33
2017-12-16T01:22:18.028Z,6.33
2017-12-16T01:22:44.133Z,6.38
2017-12-16T01:23:10.230Z,6.35
2017-12-16T01:23:36.325Z,6.31
2017-12-16T01:24:02.430Z,6.42
2017-12-16T01:24:28.532Z,6.45
2017-12-16T01:24:54.628Z,6.41
2017-12-16T01:25:20.728Z,6.41
2017-12-16T01:25:46.850Z,6.44
2017-12-16T01:26:12.945Z,6.48
2017-12-16T01:26:39.045Z,6.46
2017-12-16T01:27:05.144Z,6.54
2017-12-16T01:27:31.248Z,6.49
2017-12-16T01:27:57.349Z,6.39
2017-12-16T01:28:23.447Z,6.45
2017-12-16T01:28:49.551Z,6.46
2017-12-16T01:29:15.650Z,6.49
2017-12-16T01:29:41.748Z,6.54
2017-12-16T01:30:07.852Z,6.51
2017-12-16T01:30:33.964Z,6.48
2017-12-16T01:31:00.069Z,6.51
2017-12-16T01:31:26.171Z,6.45
2017-12-16T01:31:52.266Z,6.49
2017-12-16T01:32:18.371Z,6.41
2017-12-16T01:32:44.467Z,6.38
2017-12-16T01:33:10.564Z,6.36
2017-12-16T01:33:36.664Z,6.42
2017-12-16T01:34:02.784Z,6.36
2017-12-16T01:34:28.896Z,6.33
2017-12-16T01:34:54.997Z,6.46
2017-12-16T01:35:21.103Z,6.38
2017-12-16T01:35:47.201Z,6.22
2017-12-16T01:36:13.299Z,6.3
2017-12-16T01:36:39.417Z,6.27
2017-12-16T01:37:05.515Z,6.3
2017-12-16T01:37:31.618Z,6.28
2017-12-16T01:37:57.718Z,6.24
2017-12-16T01:38:23.823Z,6.28
2017-12-16T01:38:49.923Z,6.36
2017-12-16T01:39:16.039Z,6.33
2017-12-16T01:39:42.153Z,6.35
2017-12-16T01:40:08.247Z,6.33
2017-12-16T01:40:34.348Z,6.24
2017-12-16T01:41:00.444Z,6.2
2017-12-16T01:41:26.550Z,6.12
2017-12-16T01:41:52.647Z,6.07
2017-12-16T01:42:18.770Z,6.12
2017-12-16T01:42:44.864Z,6.09
2017-12-16T01:43:10.966Z,6.22
2017-12-16T01:43:37.069Z,6.17
2017-12-16T01:44:03.183Z,6.08
2017-12-16T01:44:29.276Z,6.08
2017-12-16T01:44:55.381Z,6.02
2017-12-16T01:45:21.484Z,5.97
2017-12-16T01:45:47.577Z,5.99
2017-12-16T01:46:13.680Z,5.94
2017-12-16T01:46:39.783Z,6.01
2017-12-16T01:47:05.887Z,5.9
2017-12-16T01:47:31.988Z,5.83
2017-12-16T01:47:58.081Z,5.73
2017-12-16T01:48:24.199Z,5.8
2017-12-16T01:48:50.294Z,5.79
2017-12-16T01:49:16.409Z,5.69
2017-12-16T01:49:42.506Z,5.73
2017-12-16T01:50:08.618Z,5.69
2017-12-16T01:50:34.712Z,5.75
2017-12-16T01:51:00.817Z,5.76
2017-12-16T01:51:26.919Z,5.79
2017-12-16T01:51:53.019Z,5.86
2017-12-16T01:52:19.113Z,5.87
2017-12-16T01:52:45.212Z,5.82
2017-12-16T01:53:11.317Z,5.79
2017-12-16T01:53:37.430Z,5.73
2017-12-16T01:54:03.531Z,5.72
2017-12-16T01:54:29.640Z,5.68
2017-12-16T01:54:55.752Z,5.82
2017-12-16T01:55:21.861Z,5.76
2017-12-16T01:55:47.960Z,5.76
2017-12-16T01:56:14.056Z,5.79
2017-12-16T01:56:40.153Z,5.84
2017-12-16T01:57:06.260Z,5.76
2017-12-16T01:57:32.362Z,5.66
2017-12-16T01:57:58.458Z,5.82
2017-12-16T01:58:24.561Z,5.79
2017-12-16T01:58:50.658Z,5.82
2017-12-16T01:59:16.779Z,5.8
2017-12-16T01:59:42.875Z,5.71
2017-12-16T02:00:08.975Z,5.76
2017-12-16T02:00:35.075Z,5.8
2017-12-16T02:01:01.169Z,5.8
2017-12-16T02:01:27.272Z,5.83
2017-12-16T02:01:53.379Z,5.87
2017-12-16T02:02:19.472Z,5.93
2017-12-16T02:02:45.579Z,5.89
2017-12-16T02:03:11.672Z,5.89
2017-12-16T02:03:37.768Z,5.82
2017-12-16T02:04:03.890Z,5.89
2017-12-16T02:04:30.007Z,5.97
2017-12-16T02:04:56.104Z,5.94
2017-12-16T02:05:22.209Z,5.84
2017-12-16T02:05:48.309Z,5.89
2017-12-16T02:06:14.402Z,5.93
2017-12-16T02:06:40.513Z,5.87
2017-12-16T02:07:06.611Z,5.89
2017-12-16T02:07:32.711Z,5.87
2017-12-16T02:07:58.817Z,5.87
2017-12-16T02:08:24.918Z,5.91
2017-12-16T02:08:51.021Z,5.91
2017-12-16T02:09:17.115Z,5.97
2017-12-16T02:09:43.216Z,6.01
2017-12-16T02:10:09.315Z,5.94
2017-12-16T02:10:35.410Z,5.91
2017-12-16T02:11:01.525Z,5.93
2017-12-16T02:11:27.636Z,5.79
2017-12-16T02:11:53.734Z,5.73
2017-12-16T02:12:19.844Z,5.86
2017-12-16T02:12:45.940Z,5.75
2017-12-16T02:13:12.036Z,5.8
2017-12-16T02:13:38.136Z,5.75
2017-12-16T02:14:04.243Z,5.75
2017-12-16T02:14:30.339Z,5.72
2017-12-16T02:14:56.444Z,5.76
2017-12-16T02:15:22.544Z,5.73
2017-12-16T02:15:48.640Z,5.76
2017-12-16T02:16:14.735Z,5.89
2017-12-16T02:16:40.840Z,5.89
2017-12-16T02:17:06.940Z,5.94
2017-12-16T02:17:33.035Z,5.99
2017-12-16T02:17:59.139Z,6.02
2017-12-16T02:18:25.232Z,5.8
2017-12-16T02:18:51.334Z,5.83
2017-12-16T02:19:17.439Z,5.71
2017-12-16T02:19:43.534Z,5.59
2017-12-16T02:20:09.635Z,5.62
2017-12-16T02:20:35.738Z,5.71
2017-12-16T02:21:01.840Z,5.66
2017-12-16T02:21:27.938Z,5.62
2017-12-16T02:21:54.041Z,5.51
2017-12-16T02:22:20.136Z,5.47
2017-12-16T02:22:46.241Z,5.57
2017-12-16T02:23:12.333Z,5.33
2017-12-16T02:23:38.438Z,5.38
2017-12-16T02:24:04.533Z,5.35
2017-12-16T02:24:30.630Z,5.41
2017-12-16T02:24:56.733Z,5.48
2017-12-16T02:25:22.855Z,5.57
2017-12-16T02:25:48.949Z,5.54
2017-12-16T02:26:15.048Z,5.54
2017-12-16T02:26:41.153Z,5.38
2017-12-16T02:27:07.249Z,5.38
2017-12-16T02:27:33.356Z,5.48
2017-12-16T02:27:59.452Z,5.39
2017-12-16T02:28:25.565Z,5.41
2017-12-16T02:28:51.669Z,5.39
2017-12-16T02:29:17.768Z,5.41
2017-12-16T02:29:43.863Z,5.35
2017-12-16T02:30:09.964Z,5.32
2017-12-16T02:30:36.063Z,5.38
2017-12-16T02:31:02.160Z,5.51
2017-12-16T02:31:28.266Z,5.5
2017-12-16T02:31:54.366Z,5.56
2017-12-16T02:32:20.480Z,5.54
2017-12-16T02:32:46.582Z,5.64
2017-12-16T02:33:12.687Z,5.61
2017-12-16T02:33:38.783Z,5.57
2017-12-16T02:34:04.887Z,5.66
2017-12-16T02:34:30.986Z,5.66
2017-12-16T02:34:57.079Z,5.62
2017-12-16T02:35:23.184Z,5.66
2017-12-16T02:35:49.283Z,5.53
2017-12-16T02:36:15.397Z,5.56
2017-12-16T02:36:41.501Z,5.54
2017-12-16T02:37:07.593Z,5.53
2017-12-16T02:37:33.689Z,5.51
2017-12-16T02:37:59.790Z,5.54
2017-12-16T02:38:25.895Z,5.38
2017-12-16T02:38:51.995Z,5.26
2017-12-16T02:39:18.097Z,5.21
2017-12-16T02:39:44.193Z,5.25
2017-12-16T02:40:10.289Z,5.15
2017-12-16T02:40:36.412Z,5.23
2017-12-16T02:41:02.525Z,5.23
2017-12-16T02:41:28.637Z,5.08
2017-12-16T02:41:54.750Z,5.11
2017-12-16T02:42:20.845Z,5.12
2017-12-16T02:42:46.951Z,5.2
2017-12-16T02:43:13.062Z,5.18
2017-12-16T02:43:39.163Z,5.14
2017-12-16T02:44:05.267Z,5.2
2017-12-16T02:44:31.366Z,5.2
2017-12-16T02:44:57.604Z,5.1
2017-12-16T02:45:23.724Z,5.12
2017-12-16T02:45:49.837Z,5.18
2017-12-16T02:46:15.947Z,5.17
2017-12-16T02:46:42.035Z,5.17
2017-12-16T02:47:08.134Z,5.25
2017-12-16T02:47:34.239Z,5.21
2017-12-16T02:48:00.334Z,5.14
2017-12-16T02:48:26.439Z,5.14
2017-12-16T02:48:52.540Z,5.11
2017-12-16T02:49:18.637Z,5.05
2017-12-16T02:49:44.738Z,5.07
2017-12-16T02:50:10.831Z,5.17
2017-12-16T02:50:36.931Z,5.14
2017-12-16T02:51:03.029Z,5.15
2017-12-16T02:51:29.138Z,5.3
2017-12-16T02:51:55.232Z,5.32
2017-12-16T02:52:21.340Z,5.39
2017-12-16T02:52:47.432Z,5.44
2017-12-16T02:53:13.539Z,5.39
2017-12-16T02:53:39.635Z,5.48
2017-12-16T02:54:05.734Z,5.41
2017-12-16T02:54:31.826Z,5.46
2017-12-16T02:54:57.928Z,5.33
2017-12-16T02:55:24.047Z,5.33
2017-12-16T02:55:50.143Z,5.46
2017-12-16T02:56:16.274Z,5.57
2017-12-16T02:56:42.372Z,5.54
2017-12-16T02:57:08.471Z,5.56
2017-12-16T02:57:34.566Z,5.64
2017-12-16T02:58:00.665Z,5.56
2017-12-16T02:58:26.766Z,5.53
2017-12-16T02:58:52.864Z,5.62
2017-12-16T02:59:18.972Z,5.64
2017-12-16T02:59:45.097Z,5.69
2017-12-16T03:00:11.199Z,5.66
2017-12-16T03:00:37.311Z,5.57
2017-12-16T03:01:03.407Z,5.57
2017-12-16T03:01:29.510Z,5.51
2017-12-16T03:01:55.615Z,5.57
2017-12-16T03:02:21.711Z,5.64
2017-12-16T03:02:47.814Z,5.61
2017-12-16T03:03:13.916Z,5.59
2017-12-16T03:03:40.018Z,5.54
2017-12-16T03:04:06.116Z,5.61
2017-12-16T03:04:32.230Z,5.53
2017-12-16T03:04:58.329Z,5.62
2017-12-16T03:05:24.429Z,5.56
2017-12-16T03:05:50.530Z,5.57
2017-12-16T03:06:16.684Z,5.59
2017-12-16T03:06:42.732Z,5.65
2017-12-16T03:07:08.837Z,5.65
2017-12-16T03:07:34.926Z,5.59
2017-12-16T03:08:01.030Z,5.69
2017-12-16T03:08:27.131Z,5.65
2017-12-16T03:08:53.233Z,5.68
2017-12-16T03:09:19.330Z,5.69
2017-12-16T03:09:45.426Z,5.64
2017-12-16T03:10:11.530Z,5.65
2017-12-16T03:10:37.631Z,5.64
2017-12-16T03:11:03.735Z,5.66
2017-12-16T03:11:29.825Z,5.66
2017-12-16T03:11:55.928Z,5.71
2017-12-16T03:12:22.023Z,5.68
2017-12-16T03:12:48.126Z,5.79
2017-12-16T03:13:14.228Z,5.76
2017-12-16T03:13:40.324Z,5.69
2017-12-16T03:14:06.421Z,5.65
2017-12-16T03:14:32.521Z,5.73
2017-12-16T03:14:58.619Z,5.86
2017-12-16T03:15:24.723Z,5.89
2017-12-16T03:15:50.827Z,5.89
2017-12-16T03:16:16.924Z,5.84
2017-12-16T03:16:43.019Z,5.84
2017-12-16T03:17:09.125Z,5.82
2017-12-16T03:17:35.223Z,5.8
2017-12-16T03:18:01.330Z,5.89
2017-12-16T03:18:27.425Z,5.87
2017-12-16T03:18:53.524Z,5.87
2017-12-16T03:19:19.624Z,5.99
2017-12-16T03:19:45.724Z,5.98
2017-12-16T03:20:11.824Z,6.04
2017-12-16T03:20:37.927Z,6.02
2017-12-16T03:21:04.024Z,6.05
2017-12-16T03:21:30.119Z,6.07
2017-12-16T03:21:56.223Z,6.08
2017-12-16T03:22:22.324Z,6.04
2017-12-16T03:22:48.426Z,5.98
2017-12-16T03:23:14.529Z,6.02
2017-12-16T03:23:40.628Z,5.9
2017-12-16T03:24:06.732Z,5.84
2017-12-16T03:24:32.834Z,5.82
2017-12-16T03:24:58.933Z,5.72
2017-12-16T03:25:25.028Z,5.73
2017-12-16T03:25:51.131Z,5.75
2017-12-16T03:26:17.230Z,5.82
2017-12-16T03:26:43.343Z,5.75
2017-12-16T03:27:09.448Z,5.82
2017-12-16T03:27:35.547Z,5.82
2017-12-16T03:28:01.649Z,5.8
2017-12-16T03:28:27.746Z,5.79
2017-12-16T03:28:53.842Z,5.76
2017-12-16T03:29:19.946Z,5.75
2017-12-16T03:29:46.045Z,5.71
2017-12-16T03:30:12.158Z,5.68
2017-12-16T03:30:38.260Z,5.69
2017-12-16T03:31:04.357Z,5.79
2017-12-16T03:31:30.467Z,5.75
2017-12-16T03:31:56.575Z,5.68
2017-12-16T03:32:22.670Z,5.82
2017-12-16T03:32:48.769Z,5.79
2017-12-16T03:33:14.875Z,5.8
2017-12-16T03:33:40.988Z,5.87
2017-12-16T03:34:07.084Z,5.9
2017-12-16T03:34:33.202Z,5.93
2017-12-16T03:34:59.304Z,5.94
2017-12-16T03:35:25.399Z,6.02
2017-12-16T03:35:51.495Z,5.93
2017-12-16T03:36:17.595Z,5.94
2017-12-16T03:36:43.694Z,6.02
2017-12-16T03:37:09.798Z,6.04
2017-12-16T03:37:35.900Z,6.05
2017-12-16T03:38:01.995Z,6.08
2017-12-16T03:38:28.103Z,6.08
2017-12-16T03:38:54.198Z,6.12
2017-12-16T03:39:20.294Z,6.08
2017-12-16T03:39:46.398Z,5.99
2017-12-16T03:40:12.501Z,5.89
2017-12-16T03:40:38.614Z,6.05
2017-12-16T03:41:04.732Z,5.98
2017-12-16T03:41:30.842Z,6.01
2017-12-16T03:41:56.942Z,5.94
2017-12-16T03:42:23.043Z,5.94
2017-12-16T03:42:49.145Z,5.98
2017-12-16T03:43:15.243Z,5.97
2017-12-16T03:43:41.363Z,5.89
2017-12-16T03:44:07.466Z,5.87
2017-12-16T03:44:33.560Z,5.84
2017-12-16T03:44:59.665Z,5.76
2017-12-16T03:45:25.761Z,5.79
2017-12-16T03:45:51.865Z,5.75
2017-12-16T03:46:17.961Z,5.75
2017-12-16T03:46:44.060Z,5.79
2017-12-16T03:47:10.163Z,5.68
2017-12-16T03:47:36.259Z,5.69
2017-12-16T03:48:02.361Z,5.73
2017-12-16T03:48:28.460Z,5.73
2017-12-16T03:48:54.550Z,5.75
2017-12-16T03:49:20.648Z,5.71
2017-12-16T03:49:46.752Z,5.73
2017-12-16T03:50:12.855Z,5.8
2017-12-16T03:50:38.957Z,5.8
2017-12-16T03:51:05.096Z,5.72
2017-12-16T03:51:31.194Z,5.72
2017-12-16T03:51:57.292Z,5.75
2017-12-16T03:52:23.397Z,5.75
2017-12-16T03:52:49.493Z,5.83
2017-12-16T03:53:15.597Z,5.87
2017-12-16T03:53:41.696Z,5.86
2017-12-16T03:54:07.800Z,5.8
2017-12-16T03:54:33.890Z,5.93
2017-12-16T03:54:59.987Z,5.87
2017-12-16T03:55:26.092Z,5.91
2017-12-16T03:55:52.195Z,5.94
2017-12-16T03:56:18.294Z,6.02
2017-12-16T03:56:44.391Z,5.89
2017-12-16T03:57:10.494Z,5.98
2017-12-16T03:57:36.593Z,5.98
2017-12-16T03:58:02.698Z,5.9
2017-12-16T03:58:28.795Z,5.93
2017-12-16T03:58:54.900Z,5.86
2017-12-16T03:59:21.012Z,5.91
2017-12-16T03:59:47.115Z,5.94
2017-12-16T04:00:13.213Z,5.89
2017-12-16T04:00:39.315Z,6.02
2017-12-16T04:01:05.413Z,5.98
2017-12-16T04:01:31.518Z,5.93
2017-12-16T04:01:57.618Z,5.82
2017-12-16T04:02:23.715Z,5.86
2017-12-16T04:02:49.820Z,5.86
2017-12-16T04:03:15.916Z,5.9
2017-12-16T04:03:42.021Z,5.75
2017-12-16T04:04:08.120Z,5.79
2017-12-16T04:04:34.216Z,5.8
2017-12-16T04:05:00.326Z,5.75
2017-12-16T04:05:26.416Z,5.79
2017-12-16T04:05:52.521Z,5.72
2017-12-16T04:06:18.621Z,5.69
2017-12-16T04:06:44.717Z,5.71
2017-12-16T04:07:10.816Z,5.8
2017-12-16T04:07:36.912Z,5.79
2017-12-16T04:08:03.010Z,5.8
2017-12-16T04:08:29.109Z,5.79
2017-12-16T04:08:55.203Z,5.75
2017-12-16T04:09:21.368Z,5.76
2017-12-16T04:09:47.424Z,5.87
2017-12-16T04:10:13.525Z,5.82
2017-12-16T04:10:39.625Z,5.89
2017-12-16T04:11:05.724Z,5.69
2017-12-16T04:11:31.831Z,5.76
2017-12-16T04:11:57.928Z,5.71
2017-12-16T04:12:24.031Z,5.69
2017-12-16T04:12:50.153Z,5.69
2017-12-16T04:13:16.275Z,5.72
2017-12-16T04:13:42.363Z,5.66
2017-12-16T04:14:08.456Z,5.72
2017-12-16T04:14:34.561Z,5.83
2017-12-16T04:15:00.656Z,5.79
2017-12-16T04:15:26.765Z,5.64
2017-12-16T04:15:52.861Z,5.62
2017-12-16T04:16:18.964Z,5.79
2017-12-16T04:16:45.063Z,5.69
2017-12-16T04:17:11.166Z,5.73
2017-12-16T04:17:37.267Z,5.71
2017-12-16T04:18:03.370Z,5.76
2017-12-16T04:18:29.470Z,5.84
2017-12-16T04:18:55.585Z,5.83
2017-12-16T04:19:21.684Z,5.87
2017-12-16T04:19:47.788Z,5.91
2017-12-16T04:20:13.889Z,5.9
2017-12-16T04:20:39.987Z,5.89
2017-12-16T04:21:06.085Z,5.93
2017-12-16T04:21:32.180Z,5.87
2017-12-16T04:21:58.301Z,5.86
2017-12-16T04:22:24.395Z,5.89
2017-12-16T04:22:50.498Z,5.91
2017-12-16T04:23:16.594Z,5.93
2017-12-16T04:23:42.692Z,6.02
2017-12-16T04:24:08.795Z,5.89
2017-12-16T04:24:34.893Z,5.84
2017-12-16T04:25:00.991Z,5.79
2017-12-16T04:25:27.097Z,5.82
2017-12-16T04:25:53.192Z,5.79
2017-12-16T04:26:19.295Z,5.72
2017-12-16T04:26:45.394Z,5.79
2017-12-16T04:27:11.490Z,5.65
2017-12-16T04:27:37.594Z,5.72
2017-12-16T04:28:03.690Z,5.8
2017-12-16T04:28:29.794Z,5.82
2017-12-16T04:28:55.892Z,5.84
2017-12-16T04:29:21.998Z,5.8
2017-12-16T04:29:48.110Z,5.8
2017-12-16T04:30:14.214Z,5.75
2017-12-16T04:30:40.308Z,5.66
2017-12-16T04:31:06.415Z,5.71
2017-12-16T04:31:32.513Z,5.65
2017-12-16T04:31:58.617Z,5.68
2017-12-16T04:32:24.714Z,5.62
2017-12-16T04:32:50.817Z,5.72
2017-12-16T04:33:16.921Z,5.72
2017-12-16T04:33:43.018Z,5.65
2017-12-16T04:34:09.110Z,5.73
2017-12-16T04:34:35.214Z,5.76
2017-12-16T04:35:01.314Z,5.87
2017-12-16T04:35:27.431Z,5.89
2017-12-16T04:35:53.536Z,5.84
2017-12-16T04:36:19.632Z,5.91
2017-12-16T04:36:45.736Z,5.84
2017-12-16T04:37:11.833Z,5.87
2017-12-16T04:37:37.953Z,5.89
2017-12-16T04:38:04.049Z,5.82
2017-12-16T04:38:30.156Z,5.89
2017-12-16T04:38:56.255Z,5.98
2017-12-16T04:39:22.367Z,5.75
2017-12-16T04:39:48.463Z,5.79
2017-12-16T04:40:14.561Z,5.68
2017-12-16T04:40:40.664Z,5.79
2017-12-16T04:41:06.792Z,5.82
2017-12-16T04:41:32.890Z,5.76
2017-12-16T04:41:58.986Z,5.82
2017-12-16T04:42:25.090Z,5.8
2017-12-16T04:42:51.187Z,5.69
2017-12-16T04:43:17.310Z,5.79
2017-12-16T04:43:43.407Z,5.76
2017-12-16T04:44:09.511Z,5.75
2017-12-16T04:44:35.606Z,5.82
2017-12-16T04:45:01.709Z,5.82
2017-12-16T04:45:27.808Z,5.84
2017-12-16T04:45:53.910Z,5.83
2017-12-16T04:46:20.733Z,5.83
2017-12-16T04:46:46.836Z,5.87
2017-12-16T04:47:12.940Z,5.84
2017-12-16T04:47:39.089Z,5.84
2017-12-16T04:48:05.281Z,5.9
2017-12-16T04:48:31.447Z,5.89
2017-12-16T04:48:57.773Z,5.9
2017-12-16T04:49:23.904Z,5.84
2017-12-16T04:49:50.030Z,5.98
2017-12-16T04:50:16.128Z,5.99
2017-12-16T04:50:42.226Z,6.02
2017-12-16T04:51:08.330Z,5.98
2017-12-16T04:51:34.433Z,5.91
2017-12-16T04:52:00.550Z,5.9
2017-12-16T04:52:26.652Z,5.97
2017-12-16T04:52:52.753Z,5.98
2017-12-16T04:53:18.850Z,5.91
2017-12-16T04:53:44.951Z,6.04
2017-12-16T04:54:11.044Z,6.05
2017-12-16T04:54:37.175Z,6.02
2017-12-16T04:55:03.254Z,5.99
2017-12-16T04:55:29.371Z,6.02
2017-12-16T04:55:55.470Z,5.94
2017-12-16T04:56:21.572Z,6.04
2017-12-16T04:56:47.675Z,6.01
2017-12-16T04:57:13.775Z,6.04
2017-12-16T04:57:39.894Z,5.98
2017-12-16T04:58:05.998Z,6.04
2017-12-16T04:58:32.100Z,6.05
2017-12-16T04:58:58.194Z,6.12
2017-12-16T04:59:24.296Z,6.01
2017-12-16T04:59:50.397Z,6.01
2017-12-16T05:00:16.498Z,6.02
2017-12-16T05:00:42.597Z,5.98
2017-12-16T05:01:08.724Z,5.97
2017-12-16T05:01:34.823Z,5.89
2017-12-16T05:02:00.935Z,5.94
2017-12-16T05:02:27.021Z,5.91
2017-12-16T05:02:53.144Z,5.93
2017-12-16T05:03:19.246Z,5.83
2017-12-16T05:03:45.356Z,5.9
2017-12-16T05:04:11.469Z,5.98
2017-12-16T05:04:37.569Z,5.94
2017-12-16T05:05:03.665Z,5.97
2017-12-16T05:05:29.768Z,5.9
2017-12-16T05:05:55.868Z,5.91
2017-12-16T05:06:21.966Z,5.89
2017-12-16T05:06:48.071Z,5.84
2017-12-16T05:07:14.166Z,5.91
2017-12-16T05:07:40.274Z,5.99
2017-12-16T05:08:06.374Z,5.94
2017-12-16T05:08:32.475Z,5.98
2017-12-16T05:08:58.576Z,5.94
2017-12-16T05:09:24.675Z,6.04
2017-12-16T05:09:50.775Z,5.9
2017-12-16T05:10:16.871Z,5.86
2017-12-16T05:10:43.519Z,5.83
2017-12-16T05:11:09.921Z,5.79
2017-12-16T05:11:36.033Z,5.71
2017-12-16T05:12:02.307Z,5.72
2017-12-16T05:12:28.513Z,5.69
2017-12-16T05:12:54.649Z,5.72
2017-12-16T05:13:20.793Z,5.8
2017-12-16T05:13:46.922Z,5.72
2017-12-16T05:14:13.052Z,5.84
2017-12-16T05:14:39.248Z,5.76
2017-12-16T05:15:05.394Z,5.71
2017-12-16T05:15:31.503Z,5.76
2017-12-16T05:15:57.599Z,5.79
2017-12-16T05:16:23.708Z,5.66
2017-12-16T05:16:49.811Z,5.66
2017-12-16T05:17:15.913Z,5.79
2017-12-16T05:17:42.011Z,5.68
2017-12-16T05:18:08.109Z,5.65
2017-12-16T05:18:34.212Z,5.72
2017-12-16T05:19:00.317Z,5.66
2017-12-16T05:19:26.415Z,5.72
2017-12-16T05:19:52.516Z,5.76
2017-12-16T05:20:18.614Z,5.82
2017-12-16T05:20:44.711Z,5.71
2017-12-16T05:21:10.811Z,5.65
2017-12-16T05:21:36.914Z,5.82
2017-12-16T05:22:03.021Z,5.79
2017-12-16T05:22:29.122Z,5.72
2017-12-16T05:22:55.233Z,5.79
2017-12-16T05:23:21.337Z,5.73
2017-12-16T05:23:47.440Z,5.8
2017-12-16T05:24:13.538Z,5.76
2017-12-16T05:24:39.632Z,5.75
2017-12-16T05:25:05.738Z,5.72
2017-12-16T05:25:31.858Z,5.76
2017-12-16T05:25:57.963Z,5.75
2017-12-16T05:26:24.058Z,5.73
2017-12-16T05:26:50.160Z,5.79
2017-12-16T05:27:16.264Z,5.71
2017-12-16T05:27:42.360Z,5.69
2017-12-16T05:28:08.458Z,5.69
2017-12-16T05:28:34.561Z,5.73
2017-12-16T05:29:00.663Z,5.69
2017-12-16T05:29:26.761Z,5.66
2017-12-16T05:29:52.865Z,5.69
2017-12-16T05:30:18.980Z,5.71
2017-12-16T05:30:45.078Z,5.71
2017-12-16T05:31:11.179Z,5.71
2017-12-16T05:31:37.276Z,5.79
2017-12-16T05:32:03.380Z,5.68
2017-12-16T05:32:29.475Z,5.66
2017-12-16T05:32:55.598Z,5.68
2017-12-16T05:33:21.694Z,5.66
2017-12-16T05:33:47.791Z,5.66
2017-12-16T05:34:13.912Z,5.59
2017-12-16T05:34:40.008Z,5.56
2017-12-16T05:35:06.107Z,5.56
2017-12-16T05:35:32.210Z,5.62
2017-12-16T05:35:58.319Z,5.56
2017-12-16T05:36:24.420Z,5.57
2017-12-16T05:36:50.547Z,5.54
2017-12-16T05:37:16.641Z,5.44
2017-12-16T05:37:42.747Z,5.56
2017-12-16T05:38:08.840Z,5.61
2017-12-16T05:38:34.938Z,5.38
2017-12-16T05:39:01.043Z,5.41
2017-12-16T05:39:27.147Z,5.57
2017-12-16T05:39:53.255Z,5.56
2017-12-16T05:40:19.362Z,5.62
2017-12-16T05:40:45.464Z,5.66
2017-12-16T05:41:11.565Z,5.61
2017-12-16T05:41:37.681Z,5.57
2017-12-16T05:42:03.776Z,5.54
2017-12-16T05:42:29.876Z,5.53
2017-12-16T05:42:55.978Z,5.57
2017-12-16T05:43:22.076Z,5.57
2017-12-16T05:43:48.179Z,5.54
2017-12-16T05:44:14.281Z,5.59
2017-12-16T05:44:40.384Z,5.64
2017-12-16T05:45:06.495Z,5.54
2017-12-16T05:45:32.593Z,5.64
2017-12-16T05:45:58.707Z,5.61
2017-12-16T05:46:24.813Z,5.57
2017-12-16T05:46:50.928Z,5.57
2017-12-16T05:47:17.030Z,5.56
2017-12-16T05:47:43.146Z,5.5
2017-12-16T05:48:09.286Z,5.53